Time;durP1;ratioP1;P1;durP2;ratioP2;P2;SDS_P1;SDS_P2;PMS_P1;PMS_P2;Temp;Humidity;BMP_temperature;BMP_pressure;BME280_temperature;BME280_humidity;BME280_pressure;Samples;Min_cycle;Max_cycle;Signal;HPM_P1;HPM_P2
2023/04/07 00:01:51;;;;;;;9.30;6.50;;;;;;;6.50;51.41;99327.94;4921627;29;20201;-83
2023/04/07 00:04:18;;;;;;;7.07;6.03;;;;;;;6.51;51.21;99327.75;4904200;29;20209;-84
2023/04/07 00:06:45;;;;;;;7.60;6.40;;;;;;;6.49;51.34;99324.44;4921273;29;20230;-83
2023/04/07 00:09:11;;;;;;;7.63;6.10;;;;;;;6.45;51.03;99319.72;4908198;29;20198;-82
2023/04/07 00:11:38;;;;;;;7.80;6.47;;;;;;;6.49;50.99;99321.78;4905591;29;20654;-82
2023/04/07 00:14:05;;;;;;;7.70;6.17;;;;;;;6.53;50.75;99331.00;4921800;29;20891;-81
2023/04/07 00:16:32;;;;;;;8.07;6.37;;;;;;;6.55;51.06;99328.16;4912945;29;20205;-81
2023/04/07 00:18:58;;;;;;;7.67;6.40;;;;;;;6.61;50.52;99322.84;4922932;29;20203;-82
2023/04/07 00:21:26;;;;;;;7.83;6.93;;;;;;;6.60;50.37;99312.41;4927583;29;20597;-82
2023/04/07 00:23:55;;;;;;;7.63;6.50;;;;;;;6.67;50.07;99317.75;4911470;29;20206;-81
2023/04/07 00:26:24;;;;;;;8.63;7.07;;;;;;;6.53;50.63;99320.34;4889727;29;20239;-82
2023/04/07 00:28:51;;;;;;;7.07;6.37;;;;;;;6.61;50.12;99316.72;4914872;29;20202;-81
2023/04/07 00:31:18;;;;;;;8.67;6.47;;;;;;;6.62;50.25;99313.03;4902157;29;20214;-81
2023/04/07 00:33:44;;;;;;;7.07;6.07;;;;;;;6.63;50.34;99312.81;4903323;29;20229;-81
2023/04/07 00:36:11;;;;;;;8.37;7.03;;;;;;;6.66;50.25;99302.78;4920171;29;20215;-81
2023/04/07 00:38:38;;;;;;;9.57;7.23;;;;;;;6.53;50.43;99307.06;4900938;29;20739;-81
2023/04/07 00:41:05;;;;;;;7.83;7.00;;;;;;;6.64;50.18;99305.66;4903487;29;20201;-82
2023/04/07 00:43:31;;;;;;;8.17;6.63;;;;;;;6.61;50.29;99312.22;4890159;29;20751;-81
2023/04/07 00:45:58;;;;;;;9.33;6.70;;;;;;;6.63;50.35;99306.66;4923692;29;20300;-80
2023/04/07 00:48:26;;;;;;;8.00;6.60;;;;;;;6.65;50.33;99301.97;4905975;29;20204;-84
2023/04/07 00:50:52;;;;;;;7.93;6.60;;;;;;;6.53;50.81;99303.59;4887228;29;20314;-82
2023/04/07 00:53:19;;;;;;;8.20;6.90;;;;;;;6.64;50.18;99295.81;4917614;29;20280;-81
2023/04/07 00:55:46;;;;;;;7.57;6.63;;;;;;;6.33;50.63;99303.53;4921703;29;20221;-81
2023/04/07 00:58:13;;;;;;;7.33;6.50;;;;;;;6.42;50.35;99290.88;4921586;29;20225;-81
2023/04/07 01:00:57;;;;;;;7.20;6.30;;;;;;;6.55;49.94;99298.88;4903286;29;20233;-82
2023/04/07 01:03:31;;;;;;;6.97;6.07;;;;;;;6.46;50.32;99292.09;4916573;29;20201;-81
2023/04/07 01:06:01;;;;;;;8.10;6.87;;;;;;;6.51;50.14;99279.00;4921233;29;20194;-84
2023/04/07 01:08:51;;;;;;;9.00;5.80;;;;;;;6.45;50.65;99282.47;4900630;29;20206;-82
2023/04/07 01:11:28;;;;;;;6.90;6.00;;;;;;;6.43;51.20;99289.84;4920227;29;20231;-82
2023/04/07 01:13:56;;;;;;;7.83;6.60;;;;;;;6.34;50.61;99285.72;4901572;29;20668;-83
2023/04/07 01:16:35;;;;;;;8.60;6.70;;;;;;;6.38;50.70;99279.81;4918606;29;20234;-82
2023/04/07 01:19:15;;;;;;;7.17;6.27;;;;;;;6.26;50.88;99286.72;4902203;29;20206;-83
2023/04/07 01:21:50;;;;;;;7.23;6.10;;;;;;;6.41;50.50;99275.91;4883650;29;20211;-81
2023/04/07 01:24:33;;;;;;;8.77;6.87;;;;;;;6.25;50.50;99284.28;4897130;29;20191;-82
2023/04/07 01:27:15;;;;;;;8.20;6.23;;;;;;;6.32;50.31;99282.44;4868317;29;20206;-83
2023/04/07 01:29:47;;;;;;;7.90;6.07;;;;;;;6.37;50.55;99280.00;4884117;29;20212;-81
2023/04/07 01:32:16;;;;;;;8.60;6.27;;;;;;;6.29;50.92;99280.19;4886420;29;20218;-82
2023/04/07 01:34:44;;;;;;;8.33;6.90;;;;;;;6.35;50.79;99276.72;4884897;29;20433;-84
2023/04/07 01:37:12;;;;;;;7.47;6.67;;;;;;;6.23;51.27;99281.81;4899243;29;20202;-81
2023/04/07 01:39:40;;;;;;;8.67;6.50;;;;;;;6.30;51.43;99271.19;4867898;29;20221;-82
2023/04/07 01:42:08;;;;;;;6.80;6.10;;;;;;;6.24;51.51;99274.66;4882528;29;20642;-81
2023/04/07 01:44:35;;;;;;;8.00;6.37;;;;;;;6.25;51.59;99273.63;4885131;29;20205;-81
2023/04/07 01:47:03;;;;;;;7.50;6.70;;;;;;;6.27;51.15;99279.56;4898046;29;20205;-82
2023/04/07 01:49:30;;;;;;;7.43;6.60;;;;;;;6.32;51.41;99283.25;4880694;29;20218;-83
2023/04/07 01:51:58;;;;;;;8.73;6.60;;;;;;;6.14;51.26;99280.34;4873421;29;20691;-80
2023/04/07 01:54:26;;;;;;;8.00;6.73;;;;;;;6.24;51.56;99269.31;4885430;29;20244;-82
2023/04/07 01:56:53;;;;;;;9.47;6.93;;;;;;;6.13;51.53;99276.03;4886004;29;20195;-81
2023/04/07 01:59:20;;;;;;;7.60;6.67;;;;;;;6.14;51.80;99269.72;4882016;29;20199;-84
2023/04/07 02:01:47;;;;;;;9.47;6.40;;;;;;;6.11;52.20;99273.56;4876115;29;20694;-81
2023/04/07 02:04:23;;;;;;;9.70;6.50;;;;;;;6.17;51.86;99266.63;4882051;29;20221;-83
2023/04/07 02:07:01;;;;;;;8.80;7.07;;;;;;;6.13;51.75;99271.53;4907094;29;20226;-81
2023/04/07 02:09:39;;;;;;;7.43;6.60;;;;;;;6.09;52.21;99272.97;4897717;29;20258;-82
2023/04/07 02:12:08;;;;;;;7.93;6.90;;;;;;;6.03;52.43;99276.41;4906044;29;20221;-84
2023/04/07 02:14:39;;;;;;;7.20;6.50;;;;;;;6.02;51.98;99271.31;4871518;29;20207;-82
2023/04/07 02:17:10;;;;;;;8.23;6.77;;;;;;;6.08;52.68;99263.34;4892042;29;20325;-81
2023/04/07 02:19:37;;;;;;;7.57;6.70;;;;;;;6.07;52.55;99266.19;4898346;29;20212;-81
2023/04/07 02:22:07;;;;;;;8.93;6.93;;;;;;;6.21;52.08;99267.88;4899145;29;20305;-83
2023/04/07 02:24:34;;;;;;;9.47;6.90;;;;;;;6.14;52.14;99262.56;4903361;29;20225;-82
2023/04/07 02:27:01;;;;;;;8.53;6.73;;;;;;;6.10;52.18;99261.31;4920391;29;20205;-81
2023/04/07 02:29:28;;;;;;;7.10;5.87;;;;;;;6.00;52.27;99258.19;4903466;29;20294;-82
2023/04/07 02:31:55;;;;;;;8.90;7.03;;;;;;;6.11;52.08;99254.94;4913921;29;20301;-82
2023/04/07 02:34:21;;;;;;;9.57;7.70;;;;;;;5.95;52.71;99257.97;4901391;29;20222;-81
2023/04/07 02:36:48;;;;;;;8.03;7.07;;;;;;;5.92;52.06;99258.38;4916435;29;20203;-81
2023/04/07 02:39:15;;;;;;;12.60;6.70;;;;;;;5.89;52.79;99258.75;4920116;29;20204;-80
2023/04/07 02:41:41;;;;;;;9.47;7.03;;;;;;;6.07;52.41;99259.03;4916785;29;20209;-83
2023/04/07 02:44:08;;;;;;;7.27;6.50;;;;;;;6.07;52.51;99260.88;4917411;29;20222;-82
2023/04/07 02:46:37;;;;;;;8.27;7.40;;;;;;;6.03;52.59;99257.78;4918254;29;20779;-81
2023/04/07 02:49:04;;;;;;;8.10;7.30;;;;;;;6.05;52.03;99250.44;4915112;29;20206;-84
2023/04/07 02:51:31;;;;;;;9.20;6.77;;;;;;;5.88;52.34;99249.13;4920290;29;20229;-83
2023/04/07 02:53:57;;;;;;;8.30;7.07;;;;;;;5.78;53.15;99252.13;4904770;29;20258;-84
2023/04/07 02:56:24;;;;;;;9.60;7.67;;;;;;;5.84;53.23;99247.88;4901002;29;20209;-81
2023/04/07 02:58:51;;;;;;;7.83;6.97;;;;;;;5.84;52.66;99233.75;4919103;29;20577;-81
2023/04/07 03:01:18;;;;;;;7.93;7.13;;;;;;;5.95;52.68;99250.00;4925930;29;20725;-83
2023/04/07 03:03:46;;;;;;;8.80;7.57;;;;;;;5.93;52.60;99248.53;4884164;29;20235;-82
2023/04/07 03:06:20;;;;;;;9.47;7.30;;;;;;;5.80;53.10;99238.66;4902599;29;20201;-83
2023/04/07 03:09:05;;;;;;;8.80;7.70;;;;;;;5.73;53.47;99241.31;4897613;29;20217;-82
2023/04/07 03:11:32;;;;;;;11.27;7.23;;;;;;;5.83;52.64;99237.44;4918206;29;20214;-82
2023/04/07 03:13:59;;;;;;;8.70;7.63;;;;;;;5.78;53.26;99238.06;4925847;29;20287;-81
2023/04/07 03:16:28;;;;;;;11.77;8.20;;;;;;;5.78;53.59;99242.53;4920101;29;20246;-82
2023/04/07 03:19:05;;;;;;;11.10;8.27;;;;;;;5.78;53.68;99246.03;4897971;29;20203;-83
2023/04/07 03:21:37;;;;;;;9.37;7.93;;;;;;;5.69;53.34;99247.22;4889952;29;20285;-82
2023/04/07 03:24:05;;;;;;;9.57;8.07;;;;;;;5.78;53.43;99246.03;4898173;29;20206;-80
2023/04/07 03:26:32;;;;;;;9.30;8.23;;;;;;;5.57;54.49;99246.94;4901116;29;20205;-81
2023/04/07 03:29:00;;;;;;;9.57;8.13;;;;;;;5.55;54.03;99251.59;4888406;29;20210;-84
2023/04/07 03:31:29;;;;;;;9.47;8.30;;;;;;;5.66;54.12;99247.59;4885543;29;20225;-82
2023/04/07 03:33:56;;;;;;;8.57;7.67;;;;;;;5.68;54.43;99246.38;4883084;29;20237;-83
2023/04/07 03:36:23;;;;;;;8.97;7.93;;;;;;;5.65;53.85;99241.44;4887966;29;20203;-81
2023/04/07 03:38:50;;;;;;;10.17;8.00;;;;;;;5.85;53.70;99241.53;4894302;29;20214;-81
2023/04/07 03:41:17;;;;;;;9.77;7.70;;;;;;;5.77;53.63;99239.06;4905988;29;20213;-82
2023/04/07 03:43:46;;;;;;;10.37;7.77;;;;;;;5.84;53.58;99236.41;4887109;29;20610;-82
2023/04/07 03:46:13;;;;;;;8.97;7.57;;;;;;;5.84;53.53;99236.41;4891498;29;20210;-81
2023/04/07 03:48:41;;;;;;;9.13;7.43;;;;;;;5.74;53.91;99240.25;4893196;29;20289;-82
2023/04/07 03:51:09;;;;;;;9.73;7.97;;;;;;;5.64;53.89;99231.84;4884920;29;20225;-82
2023/04/07 03:53:37;;;;;;;8.80;7.43;;;;;;;5.60;54.00;99237.75;4890884;29;20249;-82
2023/04/07 03:56:16;;;;;;;9.87;8.27;;;;;;;5.69;53.86;99240.03;4879417;29;20732;-81
2023/04/07 03:58:48;;;;;;;10.43;8.20;;;;;;;5.58;53.93;99232.63;4888039;29;20310;-81
2023/04/07 04:01:23;;;;;;;9.80;8.23;;;;;;;5.53;54.40;99235.06;4889242;29;20281;-81
2023/04/07 04:03:53;;;;;;;8.60;7.67;;;;;;;5.43;54.19;99231.94;4883232;29;20235;-82
2023/04/07 04:06:23;;;;;;;9.60;7.97;;;;;;;5.42;54.94;99224.97;4881541;29;20198;-81
2023/04/07 04:08:52;;;;;;;10.03;8.00;;;;;;;5.41;54.72;99230.50;4903326;29;20207;-85
2023/04/07 04:11:20;;;;;;;9.70;7.77;;;;;;;5.45;54.56;99232.56;4913340;29;20211;-81
2023/04/07 04:13:55;;;;;;;9.73;7.73;;;;;;;5.31;54.97;99234.34;4898827;29;20286;-83
2023/04/07 04:16:22;;;;;;;9.30;7.83;;;;;;;5.40;54.52;99226.19;4887299;29;20542;-81
2023/04/07 04:18:51;;;;;;;9.20;7.60;;;;;;;5.30;54.72;99237.19;4885587;29;20786;-80
2023/04/07 04:21:19;;;;;;;8.83;7.60;;;;;;;5.21;55.31;99235.69;4884382;29;20211;-82
2023/04/07 04:23:45;;;;;;;8.43;7.23;;;;;;;5.27;54.81;99235.72;4897483;29;20206;-81
2023/04/07 04:26:15;;;;;;;8.23;7.40;;;;;;;5.11;55.48;99232.56;4879392;29;20207;-83
2023/04/07 04:28:44;;;;;;;10.03;7.50;;;;;;;5.18;55.28;99228.13;4904888;29;20210;-82
2023/04/07 04:31:12;;;;;;;9.40;7.80;;;;;;;5.09;55.44;99238.06;4905132;29;20290;-81
2023/04/07 04:33:42;;;;;;;10.20;7.97;;;;;;;5.12;55.45;99234.19;4884684;29;20242;-83
2023/04/07 04:36:09;;;;;;;11.00;7.63;;;;;;;5.05;55.63;99243.94;4868979;29;20213;-81
2023/04/07 04:38:36;;;;;;;8.20;7.10;;;;;;;5.09;55.69;99234.56;4905032;29;20202;-82
2023/04/07 04:41:08;;;;;;;9.40;7.83;;;;;;;5.21;55.75;99227.72;4890703;29;20203;-81
2023/04/07 04:43:36;;;;;;;8.77;7.20;;;;;;;5.20;55.56;99237.53;4885564;29;20209;-81
2023/04/07 04:46:04;;;;;;;10.43;7.93;;;;;;;5.16;55.90;99236.28;4885100;29;20211;-84
2023/04/07 04:48:36;;;;;;;9.37;7.60;;;;;;;5.14;55.84;99237.47;4898879;29;20207;-84
2023/04/07 04:51:04;;;;;;;10.27;7.27;;;;;;;5.25;55.74;99242.25;4878089;29;20702;-84
2023/04/07 04:53:31;;;;;;;8.70;7.43;;;;;;;5.29;55.62;99238.19;4899824;29;20210;-85
2023/04/07 04:56:00;;;;;;;8.77;7.30;;;;;;;5.28;55.79;99240.00;4904198;29;20194;-80
2023/04/07 04:58:47;;;;;;;12.37;7.77;;;;;;;5.39;55.58;99241.31;4905538;29;20203;-81
2023/04/07 05:01:22;;;;;;;8.30;7.27;;;;;;;5.51;55.76;99242.41;4894885;29;20198;-83
2023/04/07 05:03:56;;;;;;;8.53;7.10;;;;;;;5.52;55.33;99244.03;4887360;29;20197;-81
2023/04/07 05:06:27;;;;;;;10.57;7.83;;;;;;;5.67;55.39;99243.91;4884646;29;20190;-82
2023/04/07 05:08:59;;;;;;;11.23;7.67;;;;;;;5.77;55.21;99247.03;4867730;29;20200;-82
2023/04/07 05:11:32;;;;;;;11.40;9.23;;;;;;;5.80;55.58;99243.97;4907063;29;20210;-82
2023/04/07 05:13:59;;;;;;;9.00;7.83;;;;;;;5.86;55.75;99248.50;4905195;29;20659;-81
2023/04/07 05:16:25;;;;;;;11.47;7.73;;;;;;;5.99;55.35;99247.75;4888206;29;20214;-82
2023/04/07 05:18:53;;;;;;;12.83;7.47;;;;;;;6.00;54.98;99249.41;4887990;29;20774;-81
2023/04/07 05:21:22;;;;;;;7.93;7.13;;;;;;;6.05;54.76;99252.28;4899311;29;20210;-82
2023/04/07 05:23:52;;;;;;;9.23;7.10;;;;;;;6.14;54.49;99246.59;4903734;29;20809;-80
2023/04/07 05:26:21;;;;;;;11.13;8.03;;;;;;;6.04;54.41;99246.16;4913404;29;20211;-80
2023/04/07 05:28:49;;;;;;;10.53;7.60;;;;;;;6.17;54.15;99248.00;4899456;29;20198;-81
2023/04/07 05:31:20;;;;;;;7.67;6.77;;;;;;;6.15;54.06;99242.09;4906469;29;20209;-83
2023/04/07 05:33:49;;;;;;;9.97;7.13;;;;;;;6.28;53.64;99244.78;4923373;29;20256;-82
2023/04/07 05:36:18;;;;;;;8.77;7.40;;;;;;;6.28;53.90;99242.13;4921213;29;20195;-82
2023/04/07 05:38:45;;;;;;;12.00;7.40;;;;;;;6.33;53.69;99241.50;4908758;29;20204;-82
2023/04/07 05:41:15;;;;;;;8.17;7.37;;;;;;;6.42;53.59;99241.13;4909367;29;20208;-81
2023/04/07 05:43:42;;;;;;;10.53;7.30;;;;;;;6.46;53.28;99238.88;4908948;29;20194;-81
2023/04/07 05:46:09;;;;;;;9.67;7.30;;;;;;;6.48;52.96;99245.66;4906208;29;20201;-82
2023/04/07 05:48:45;;;;;;;10.33;7.17;;;;;;;6.53;53.14;99239.72;4914251;29;20210;-81
2023/04/07 05:51:15;;;;;;;8.57;7.13;;;;;;;6.54;53.13;99238.66;4892223;29;20217;-81
2023/04/07 05:53:46;;;;;;;9.07;7.33;;;;;;;6.53;52.82;99245.03;4888465;29;20275;-81
2023/04/07 05:56:15;;;;;;;8.10;7.30;;;;;;;6.52;52.89;99246.06;4886020;29;20704;-82
2023/04/07 05:58:46;;;;;;;9.10;7.27;;;;;;;6.53;53.02;99245.03;4914429;29;20202;-80
2023/04/07 06:01:14;;;;;;;7.77;6.93;;;;;;;6.59;52.76;99246.88;4919426;29;20313;-82
2023/04/07 06:03:41;;;;;;;7.43;6.67;;;;;;;6.69;52.87;99247.28;4902776;29;20198;-82
2023/04/07 06:06:13;;;;;;;7.80;6.73;;;;;;;6.61;53.04;99251.00;4898517;29;20210;-82
2023/04/07 06:08:41;;;;;;;9.03;7.10;;;;;;;6.78;53.09;99245.25;4899709;29;20694;-81
2023/04/07 06:11:07;;;;;;;10.90;7.40;;;;;;;6.83;52.54;99248.94;4913705;29;20215;-81
2023/04/07 06:13:34;;;;;;;9.10;7.13;;;;;;;6.71;52.30;99247.09;4900016;29;20265;-80
2023/04/07 06:16:01;;;;;;;8.90;6.77;;;;;;;6.82;52.44;99247.28;4912679;29;20204;-81
2023/04/07 06:18:29;;;;;;;7.70;6.90;;;;;;;6.96;51.58;99245.44;4901079;29;20242;-81
2023/04/07 06:20:55;;;;;;;8.57;6.97;;;;;;;6.94;52.20;99251.00;4915323;29;20214;-81
2023/04/07 06:23:24;;;;;;;8.43;7.30;;;;;;;7.05;52.33;99254.88;4915529;29;20675;-82
2023/04/07 06:25:52;;;;;;;8.47;7.10;;;;;;;6.95;52.42;99255.28;4898490;29;20663;-82
2023/04/07 06:28:19;;;;;;;8.40;6.90;;;;;;;7.06;52.23;99259.19;4912934;29;20210;-80
2023/04/07 06:30:47;;;;;;;8.80;6.90;;;;;;;7.11;52.18;99254.06;4914342;29;20206;-81
2023/04/07 06:33:14;;;;;;;7.83;6.80;;;;;;;7.26;51.32;99253.84;4883900;29;20242;-83
2023/04/07 06:35:41;;;;;;;9.03;7.33;;;;;;;7.25;51.14;99254.84;4915272;29;20198;-83
2023/04/07 06:38:10;;;;;;;7.93;6.93;;;;;;;7.16;51.38;99250.78;4903168;29;20302;-80
2023/04/07 06:40:36;;;;;;;9.07;6.70;;;;;;;7.23;51.29;99255.06;4916818;29;20234;-83
2023/04/07 06:43:03;;;;;;;8.70;6.97;;;;;;;7.23;51.33;99251.59;4899547;29;20234;-81
2023/04/07 06:45:39;;;;;;;8.23;6.87;;;;;;;7.35;51.32;99252.59;4905572;29;20221;-82
2023/04/07 06:48:06;;;;;;;9.20;7.07;;;;;;;7.32;50.81;99253.84;4910121;29;20250;-83
2023/04/07 06:50:32;;;;;;;7.57;6.37;;;;;;;7.50;51.22;99251.34;4897917;29;20273;-81
2023/04/07 06:52:59;;;;;;;7.73;6.30;;;;;;;7.78;50.53;99258.22;4925240;29;20218;-82
2023/04/07 06:55:26;;;;;;;7.70;6.50;;;;;;;7.83;50.81;99258.41;4915981;29;20292;-81
2023/04/07 06:57:53;;;;;;;7.27;6.27;;;;;;;7.97;49.63;99252.00;4920927;29;20259;-81
2023/04/07 07:00:21;;;;;;;7.50;6.63;;;;;;;7.78;49.96;99256.38;4907935;29;20194;-82
2023/04/07 07:02:49;;;;;;;7.67;6.50;;;;;;;7.87;50.30;99257.78;4896874;29;20301;-81
2023/04/07 07:05:16;;;;;;;8.53;6.53;;;;;;;7.87;50.01;99254.28;4902702;29;20203;-82
2023/04/07 07:07:45;;;;;;;8.30;6.67;;;;;;;7.99;49.32;99260.59;4887281;29;20194;-81
2023/04/07 07:10:12;;;;;;;8.23;6.43;;;;;;;7.86;49.82;99260.66;4905426;29;20189;-82
2023/04/07 07:12:38;;;;;;;9.17;6.63;;;;;;;8.06;49.63;99257.91;4907530;29;20296;-81
2023/04/07 07:15:06;;;;;;;7.63;6.73;;;;;;;8.06;49.57;99266.75;4903543;29;20211;-82
2023/04/07 07:17:35;;;;;;;8.23;6.37;;;;;;;8.23;48.97;99259.06;4889735;29;20272;-83
2023/04/07 07:20:02;;;;;;;6.77;6.07;;;;;;;8.29;48.48;99261.72;4908940;29;20285;-80
2023/04/07 07:22:29;;;;;;;8.50;6.57;;;;;;;8.65;48.86;99254.94;4902927;29;20292;-82
2023/04/07 07:24:56;;;;;;;7.13;6.43;;;;;;;8.99;48.26;99262.47;4904959;29;20206;-80
2023/04/07 07:27:22;;;;;;;8.07;6.00;;;;;;;9.20;47.78;99251.38;4904993;29;20206;-83
2023/04/07 07:29:49;;;;;;;7.57;6.23;;;;;;;9.40;47.13;99256.56;4923076;29;20715;-82
2023/04/07 07:32:16;;;;;;;7.63;6.50;;;;;;;9.44;47.44;99264.94;4911933;29;20222;-81
2023/04/07 07:34:42;;;;;;;8.83;6.50;;;;;;;9.93;46.77;99264.00;4893537;29;20233;-83
2023/04/07 07:37:11;;;;;;;8.07;6.77;;;;;;;10.00;46.57;99268.22;4912524;29;20182;-82
2023/04/07 07:39:38;;;;;;;7.67;6.33;;;;;;;10.21;46.62;99266.16;4907348;29;20297;-82
2023/04/07 07:42:04;;;;;;;8.03;6.33;;;;;;;9.90;45.99;99269.78;4920500;29;20242;-84
2023/04/07 07:44:31;;;;;;;7.50;6.70;;;;;;;10.08;45.78;99264.41;4921718;29;20729;-83
2023/04/07 07:46:58;;;;;;;7.07;6.33;;;;;;;10.33;45.85;99267.84;4934617;29;20269;-82
2023/04/07 07:49:24;;;;;;;6.97;6.17;;;;;;;10.37;45.29;99268.19;4903324;29;20216;-81
2023/04/07 07:51:51;;;;;;;7.20;6.50;;;;;;;10.04;45.67;99269.41;4897815;29;20723;-81
2023/04/07 07:54:18;;;;;;;8.60;6.77;;;;;;;10.25;46.14;99270.84;4923102;29;20229;-83
2023/04/07 07:56:45;;;;;;;7.13;6.43;;;;;;;10.38;45.88;99277.88;4886529;29;20202;-81
2023/04/07 07:59:11;;;;;;;8.43;6.87;;;;;;;9.42;46.29;99267.03;4901742;29;20290;-81
2023/04/07 08:01:38;;;;;;;10.13;6.63;;;;;;;9.83;45.70;99283.25;4921718;29;20201;-81
2023/04/07 08:04:05;;;;;;;7.97;6.53;;;;;;;9.89;45.77;99285.03;4905959;29;20679;-82
2023/04/07 08:06:32;;;;;;;7.93;7.10;;;;;;;10.22;45.73;99271.28;4904476;29;20648;-82
2023/04/07 08:08:59;;;;;;;9.37;6.67;;;;;;;10.23;45.18;99275.59;4919462;29;20656;-81
2023/04/07 08:11:25;;;;;;;8.47;6.83;;;;;;;9.94;45.49;99277.16;4904866;29;20189;-83
2023/04/07 08:13:53;;;;;;;9.10;6.67;;;;;;;10.37;45.62;99265.53;4892348;29;20228;-82
2023/04/07 08:16:20;;;;;;;10.07;6.70;;;;;;;10.51;45.41;99269.66;4918431;29;20194;-82
2023/04/07 08:18:48;;;;;;;9.00;7.13;;;;;;;10.20;45.00;99277.91;4920339;29;20242;-82
2023/04/07 08:21:17;;;;;;;8.47;6.90;;;;;;;10.39;44.60;99283.00;4901952;29;20290;-82
2023/04/07 08:23:44;;;;;;;7.97;6.60;;;;;;;10.52;44.75;99282.81;4918807;29;20206;-82
2023/04/07 08:26:12;;;;;;;8.67;7.37;;;;;;;10.69;44.64;99277.63;4924060;29;20214;-83
2023/04/07 08:28:38;;;;;;;8.63;6.83;;;;;;;10.76;45.37;99281.03;4919535;29;20199;-81
2023/04/07 08:31:06;;;;;;;8.33;6.73;;;;;;;10.32;45.06;99276.09;4905008;29;20204;-80
2023/04/07 08:33:33;;;;;;;7.63;6.60;;;;;;;10.05;45.20;99271.06;4909857;29;20603;-80
2023/04/07 08:36:00;;;;;;;7.83;7.00;;;;;;;10.08;45.13;99278.63;4916542;29;20223;-80
2023/04/07 08:38:26;;;;;;;7.67;6.90;;;;;;;9.42;46.39;99281.22;4903024;29;20667;-81
2023/04/07 08:41:03;;;;;;;8.57;6.60;;;;;;;9.53;45.91;99285.00;4899083;29;20876;-81
2023/04/07 08:43:30;;;;;;;9.77;6.97;;;;;;;9.91;45.63;99285.63;4917153;29;20259;-81
2023/04/07 08:45:58;;;;;;;8.43;6.77;;;;;;;9.81;45.21;99279.16;4905186;29;20282;-83
2023/04/07 08:48:32;;;;;;;9.77;7.20;;;;;;;9.43;46.34;99280.16;4906893;29;20194;-83
2023/04/07 08:51:03;;;;;;;7.93;7.13;;;;;;;9.65;46.46;99275.25;4925159;29;20189;-81
2023/04/07 08:53:51;;;;;;;10.27;7.03;;;;;;;10.08;45.87;99275.13;4902147;29;20276;-83
2023/04/07 08:56:17;;;;;;;7.90;7.10;;;;;;;9.73;45.41;99277.59;4895509;29;20217;-81
2023/04/07 08:58:46;;;;;;;13.20;10.73;;;;;;;9.91;45.38;99268.75;4911220;29;20590;-81
2023/04/07 09:01:16;;;;;;;16.47;14.47;;;;;;;9.92;45.50;99270.41;4908035;29;20208;-83
2023/04/07 09:03:43;;;;;;;8.60;7.70;;;;;;;10.42;45.06;99271.00;4914505;29;20190;-80
2023/04/07 09:06:10;;;;;;;9.33;6.93;;;;;;;10.32;44.50;99270.75;4924135;29;20190;-81
2023/04/07 09:08:37;;;;;;;11.20;7.77;;;;;;;10.67;44.11;99254.81;4911255;29;20206;-83
2023/04/07 09:11:04;;;;;;;9.90;7.70;;;;;;;10.21;44.52;99258.97;4913136;29;20296;-84
2023/04/07 09:13:30;;;;;;;8.17;7.10;;;;;;;10.74;44.18;99263.53;4896483;29;20305;-83
2023/04/07 09:16:00;;;;;;;8.00;7.20;;;;;;;11.15;44.00;99266.19;4907311;29;20192;-82
2023/04/07 09:18:27;;;;;;;9.07;7.30;;;;;;;11.64;42.47;99266.75;4905096;29;20230;-81
2023/04/07 09:20:58;;;;;;;8.87;7.60;;;;;;;11.88;42.41;99260.34;4906924;29;20308;-82
2023/04/07 09:23:33;;;;;;;10.30;8.20;;;;;;;11.88;42.51;99263.03;4922766;29;20193;-79
2023/04/07 09:26:16;;;;;;;9.53;8.30;;;;;;;11.34;42.43;99256.97;4900066;29;20201;-79
2023/04/07 09:28:45;;;;;;;7.97;7.13;;;;;;;11.97;42.60;99253.56;4914238;29;20592;-81
2023/04/07 09:31:12;;;;;;;11.33;7.73;;;;;;;11.70;42.97;99252.41;4917749;29;20589;-81
2023/04/07 09:33:39;;;;;;;8.17;7.37;;;;;;;11.59;42.87;99250.56;4915466;29;20782;-82
2023/04/07 09:36:06;;;;;;;12.00;10.57;;;;;;;11.49;43.75;99249.28;4900987;29;20209;-83
2023/04/07 09:38:34;;;;;;;9.00;7.63;;;;;;;11.87;42.13;99248.78;4919432;29;20677;-81
2023/04/07 09:41:06;;;;;;;8.60;7.20;;;;;;;12.43;42.17;99246.38;4901205;29;20212;-81
2023/04/07 09:43:36;;;;;;;11.73;10.23;;;;;;;12.38;42.30;99252.47;4900132;29;20290;-81
2023/04/07 09:46:07;;;;;;;12.57;10.73;;;;;;;12.39;41.98;99240.69;4903904;29;20198;-80
2023/04/07 09:48:34;;;;;;;10.13;8.47;;;;;;;12.86;41.02;99237.72;4917560;29;20282;-81
2023/04/07 09:51:14;;;;;;;10.03;8.20;;;;;;;12.71;40.94;99232.91;4901903;29;20198;-80
2023/04/07 09:53:50;;;;;;;8.37;7.50;;;;;;;12.52;41.06;99235.00;4888201;29;20213;-81
2023/04/07 09:56:21;;;;;;;8.03;7.23;;;;;;;12.80;41.43;99232.28;4909312;29;20202;-82
2023/04/07 09:58:51;;;;;;;13.87;8.60;;;;;;;11.93;40.77;99230.94;4903014;29;20202;-82
2023/04/07 10:01:20;;;;;;;8.37;7.47;;;;;;;12.09;41.28;99226.66;4902447;29;20215;-80
2023/04/07 10:03:47;;;;;;;8.53;7.57;;;;;;;11.79;42.02;99237.63;4916146;29;20237;-80
2023/04/07 10:06:19;;;;;;;8.73;7.77;;;;;;;11.74;42.42;99238.31;4910842;29;20195;-82
2023/04/07 10:08:48;;;;;;;8.40;7.50;;;;;;;12.00;42.09;99233.47;4901382;29;20293;-80
2023/04/07 10:11:15;;;;;;;8.23;7.43;;;;;;;12.61;40.22;99224.66;4911369;29;20297;-80
2023/04/07 10:13:42;;;;;;;8.30;7.47;;;;;;;12.94;39.76;99218.50;4904914;29;20296;-82
2023/04/07 10:16:09;;;;;;;10.83;7.83;;;;;;;12.09;41.25;99226.66;4904429;29;20213;-81
2023/04/07 10:18:37;;;;;;;9.97;8.97;;;;;;;12.24;40.96;99222.41;4918816;29;20297;-82
2023/04/07 10:21:06;;;;;;;9.97;7.67;;;;;;;11.44;42.00;99227.69;4918270;29;20214;-80
2023/04/07 10:23:43;;;;;;;9.60;8.17;;;;;;;12.48;40.79;99219.59;4910871;29;20287;-81
2023/04/07 10:26:11;;;;;;;9.43;7.80;;;;;;;12.83;40.41;99224.78;4919484;29;20213;-80
2023/04/07 10:28:39;;;;;;;11.73;10.47;;;;;;;12.45;40.95;99210.16;4930498;29;20197;-80
2023/04/07 10:31:06;;;;;;;9.30;7.70;;;;;;;12.85;40.33;99210.03;4889866;29;20210;-80
2023/04/07 10:33:48;;;;;;;8.47;7.57;;;;;;;13.09;40.05;99216.88;4905466;29;20259;-80
2023/04/07 10:36:16;;;;;;;9.63;8.07;;;;;;;13.36;40.25;99213.53;4920294;29;20202;-80
2023/04/07 10:39:07;;;;;;;9.83;7.97;;;;;;;13.55;40.47;99221.06;4907642;29;20244;-80
2023/04/07 10:41:35;;;;;;;8.57;7.67;;;;;;;13.91;39.91;99216.13;4894700;29;20216;-81
2023/04/07 10:44:02;;;;;;;11.23;8.47;;;;;;;13.26;40.24;99216.06;4918410;29;20198;-80
2023/04/07 10:46:44;;;;;;;9.80;8.17;;;;;;;12.26;41.21;99222.16;4902341;29;20523;-80
2023/04/07 10:49:12;;;;;;;8.70;7.90;;;;;;;12.05;42.27;99223.63;4922258;29;20215;-80
2023/04/07 10:51:40;;;;;;;9.67;8.30;;;;;;;12.04;41.48;99235.44;4887699;29;20210;-80
2023/04/07 10:54:21;;;;;;;9.37;8.23;;;;;;;12.05;42.47;99222.81;4887958;29;20216;-80
2023/04/07 10:57:09;;;;;;;9.87;8.10;;;;;;;11.79;42.44;99211.59;4924881;29;20203;-81
2023/04/07 10:59:38;;;;;;;10.67;8.63;;;;;;;10.68;42.31;99219.75;4926531;29;20198;-81
2023/04/07 11:02:11;;;;;;;9.77;8.60;;;;;;;11.10;42.67;99215.13;4925654;29;20194;-81
2023/04/07 11:04:41;;;;;;;9.20;8.20;;;;;;;11.06;42.45;99218.53;4927160;29;20197;-80
2023/04/07 11:07:08;;;;;;;8.70;7.80;;;;;;;10.79;42.16;99207.41;4907633;29;20199;-81
2023/04/07 11:09:35;;;;;;;12.27;8.67;;;;;;;11.21;42.09;99218.84;4925793;29;20186;-81
2023/04/07 11:12:03;;;;;;;9.30;8.07;;;;;;;11.68;41.84;99211.56;4921614;29;20202;-81
2023/04/07 11:14:31;;;;;;;9.57;8.23;;;;;;;11.41;41.52;99212.09;4911255;29;20216;-81
2023/04/07 11:17:00;;;;;;;9.70;8.20;;;;;;;11.59;41.51;99211.13;4911903;29;20230;-81
2023/04/07 11:19:27;;;;;;;10.87;8.50;;;;;;;11.79;41.63;99218.81;4925271;29;20217;-81
2023/04/07 11:22:13;;;;;;;9.10;7.90;;;;;;;11.82;41.77;99218.34;4908351;29;20265;-82
2023/04/07 11:24:55;;;;;;;9.47;7.97;;;;;;;11.33;41.34;99214.31;4897401;29;20201;-81
2023/04/07 11:27:22;;;;;;;8.70;7.70;;;;;;;11.43;41.64;99209.19;4891204;29;20198;-80
2023/04/07 11:29:49;;;;;;;9.57;7.97;;;;;;;11.53;42.09;99209.38;4914476;29;20202;-80
2023/04/07 11:32:21;;;;;;;10.50;8.57;;;;;;;11.18;42.37;99204.06;4926787;29;21074;-80
2023/04/07 11:34:51;;;;;;;8.97;8.07;;;;;;;11.46;42.36;99216.75;4919503;29;20246;-84
2023/04/07 11:37:27;;;;;;;9.30;8.23;;;;;;;11.44;42.56;99213.47;4901986;29;20206;-81
2023/04/07 11:39:56;;;;;;;11.13;8.17;;;;;;;11.72;42.59;99213.56;4920128;29;20202;-80
2023/04/07 11:42:38;;;;;;;10.80;8.57;;;;;;;11.54;42.55;99191.41;4917285;29;20202;-80
2023/04/07 11:45:15;;;;;;;12.07;8.43;;;;;;;12.06;42.53;99203.78;4919674;29;20198;-80
2023/04/07 11:47:42;;;;;;;9.60;8.37;;;;;;;12.14;42.01;99198.03;4907269;29;20515;-82